createdAt,value
2019-05-09T00:02:10.609Z,72.18
2019-05-09T00:04:37.577Z,72.19
2019-05-09T00:07:04.539Z,72.10
2019-05-09T00:09:33.523Z,72.10
2019-05-09T00:12:00.464Z,71.91
2019-05-09T00:14:29.822Z,72.05
2019-05-09T00:16:57.980Z,72.06
2019-05-09T00:19:24.963Z,72.15
2019-05-09T00:21:54.076Z,72.12
2019-05-09T00:24:21.214Z,72.12
2019-05-09T00:26:48.168Z,72.12
2019-05-09T00:29:21.489Z,71.99
2019-05-09T00:32:08.071Z,72.09
2019-05-09T00:34:53.225Z,72.08
2019-05-09T00:37:43.177Z,72.08
2019-05-09T00:40:10.385Z,72.22
2019-05-09T00:42:37.380Z,72.22
2019-05-09T00:45:07.177Z,72.32
2019-05-09T00:47:34.133Z,72.25
2019-05-09T00:50:01.117Z,72.27
2019-05-09T00:52:30.430Z,72.29
2019-05-09T00:54:57.371Z,72.29
2019-05-09T00:57:33.614Z,72.42
2019-05-09T01:00:03.908Z,72.35
2019-05-09T01:02:30.486Z,72.44
2019-05-09T01:04:57.475Z,72.44
2019-05-09T01:07:24.450Z,72.28
2019-05-09T01:09:51.418Z,72.14
2019-05-09T01:12:18.408Z,72.14
2019-05-09T01:14:45.373Z,71.72
2019-05-09T01:17:13.585Z,71.62
2019-05-09T01:19:43.049Z,71.48
2019-05-09T01:22:09.750Z,71.48
2019-05-09T01:24:36.697Z,71.39
2019-05-09T01:27:03.874Z,71.29
2019-05-09T01:29:33.706Z,71.35
2019-05-09T01:32:03.530Z,71.35
2019-05-09T01:34:33.124Z,71.16
2019-05-09T01:37:04.150Z,71.06
2019-05-09T01:39:33.518Z,71.00
2019-05-09T01:42:00.118Z,70.83
2019-05-09T01:44:27.448Z,70.78
2019-05-09T01:46:54.437Z,70.78
2019-05-09T01:49:23.293Z,70.67
2019-05-09T01:51:50.244Z,70.59
2019-05-09T01:54:19.048Z,70.49
2019-05-09T01:56:46.008Z,70.50
2019-05-09T01:59:13.673Z,70.50
2019-05-09T02:01:43.820Z,70.48
2019-05-09T02:04:10.784Z,70.49
2019-05-09T02:06:37.749Z,70.58
2019-05-09T02:09:05.761Z,70.58
2019-05-09T02:11:42.285Z,70.76
2019-05-09T02:14:05.897Z,70.88
2019-05-09T02:16:43.907Z,70.89
2019-05-09T02:19:15.372Z,71.07
2019-05-09T02:21:43.717Z,71.10
2019-05-09T02:24:10.880Z,71.11
2019-05-09T02:26:40.972Z,71.14
2019-05-09T02:29:07.932Z,71.20
2019-05-09T02:31:35.624Z,71.38
2019-05-09T02:34:04.845Z,71.55
2019-05-09T02:36:31.504Z,71.65
2019-05-09T02:38:59.154Z,71.70
2019-05-09T02:41:28.655Z,71.69
2019-05-09T02:43:58.367Z,71.79
2019-05-09T02:46:33.440Z,71.61
2019-05-09T02:49:00.399Z,71.80
2019-05-09T02:51:29.919Z,72.00
2019-05-09T02:53:58.541Z,72.00
2019-05-09T02:56:29.113Z,71.67
2019-05-09T02:59:29.713Z,72.02
2019-05-09T03:02:28.958Z,72.54
2019-05-09T03:04:58.133Z,72.54
2019-05-09T03:07:44.663Z,72.96
2019-05-09T03:10:11.677Z,72.96
2019-05-09T03:12:39.952Z,73.09
2019-05-09T03:15:09.188Z,73.28
2019-05-09T03:17:38.615Z,73.40
2019-05-09T03:20:09.456Z,73.38
2019-05-09T03:22:39.255Z,73.47
2019-05-09T03:25:05.084Z,73.57
2019-05-09T03:27:34.319Z,73.87
2019-05-09T03:30:02.948Z,74.54
2019-05-09T03:32:30.032Z,74.54
2019-05-09T03:34:58.032Z,74.98
2019-05-09T03:37:25.137Z,74.93
2019-05-09T03:39:52.097Z,74.93
2019-05-09T03:42:23.034Z,75.15
2019-05-09T03:44:47.984Z,75.32
2019-05-09T03:47:49.748Z,75.12
2019-05-09T03:50:17.959Z,75.18
2019-05-09T03:52:45.025Z,75.14
2019-05-09T03:55:20.456Z,75.15
2019-05-09T03:57:58.081Z,75.14
2019-05-09T04:00:25.575Z,75.14
2019-05-09T04:02:52.516Z,75.11
2019-05-09T04:05:19.492Z,75.07
2019-05-09T04:07:47.896Z,75.06
2019-05-09T04:10:15.062Z,75.01
2019-05-09T04:12:53.841Z,74.85
2019-05-09T04:15:11.019Z,74.93
2019-05-09T04:17:42.310Z,74.80
2019-05-09T04:20:12.056Z,74.74
2019-05-09T04:22:39.032Z,74.74
2019-05-09T04:25:07.999Z,74.67
2019-05-09T04:27:37.348Z,74.68
2019-05-09T04:30:06.428Z,74.67
2019-05-09T04:32:34.745Z,74.56
2019-05-09T04:35:01.715Z,74.62
2019-05-09T04:37:31.164Z,74.57
2019-05-09T04:40:01.573Z,74.50
2019-05-09T04:42:28.353Z,74.58
2019-05-09T04:45:10.003Z,74.38
2019-05-09T04:47:41.425Z,74.24
2019-05-09T04:50:07.436Z,74.24
2019-05-09T04:52:33.964Z,73.98
2019-05-09T04:55:00.917Z,73.98
2019-05-09T04:57:27.978Z,73.62
2019-05-09T04:59:54.985Z,73.38
2019-05-09T05:02:32.412Z,73.05
2019-05-09T05:04:59.415Z,72.79
2019-05-09T05:07:28.535Z,72.17
2019-05-09T05:09:57.496Z,72.37
2019-05-09T05:12:24.181Z,72.27
2019-05-09T05:14:51.143Z,72.43
2019-05-09T05:17:18.281Z,72.43
2019-05-09T05:19:47.457Z,72.38
2019-05-09T05:22:19.932Z,72.27
2019-05-09T05:24:55.684Z,72.08
2019-05-09T05:27:21.864Z,71.87
2019-05-09T05:29:48.815Z,71.93
2019-05-09T05:32:25.351Z,71.83
2019-05-09T05:35:21.046Z,71.83
2019-05-09T05:37:48.135Z,71.83
2019-05-09T05:40:17.670Z,71.89
2019-05-09T05:42:44.299Z,72.00
2019-05-09T05:45:12.035Z,71.91
2019-05-09T05:47:49.522Z,72.02
2019-05-09T05:50:17.636Z,72.15
2019-05-09T05:52:44.915Z,72.15
2019-05-09T05:55:12.069Z,72.21
2019-05-09T05:57:39.061Z,72.26
2019-05-09T06:00:07.828Z,72.29
2019-05-09T06:02:35.039Z,72.29
2019-05-09T06:05:02.023Z,72.42
2019-05-09T06:07:29.000Z,72.55
2019-05-09T06:09:57.573Z,72.64
2019-05-09T06:12:24.820Z,72.91
2019-05-09T06:14:51.787Z,73.12
2019-05-09T06:17:18.756Z,72.94
2019-05-09T06:19:48.121Z,73.13
2019-05-09T06:22:14.599Z,73.13
2019-05-09T06:24:41.616Z,72.93
2019-05-09T06:27:13.145Z,72.89
2019-05-09T06:29:40.117Z,73.26
2019-05-09T06:32:07.788Z,73.26
2019-05-09T06:34:35.040Z,73.56
2019-05-09T06:37:03.336Z,73.40
2019-05-09T06:39:30.608Z,73.37
2019-05-09T06:41:57.686Z,73.06
2019-05-09T06:44:31.101Z,72.92
2019-05-09T06:47:08.648Z,72.68
2019-05-09T06:49:41.307Z,72.31
2019-05-09T06:52:08.823Z,71.84
2019-05-09T06:54:36.042Z,71.85
2019-05-09T06:57:03.062Z,70.89
2019-05-09T06:59:30.038Z,70.33
2019-05-09T07:02:02.828Z,69.57
2019-05-09T07:04:42.325Z,69.66
2019-05-09T07:07:13.185Z,69.39
2019-05-09T07:09:47.916Z,68.92
2019-05-09T07:12:15.149Z,68.68
2019-05-09T07:14:42.135Z,68.04
2019-05-09T07:17:09.040Z,67.58
2019-05-09T07:19:38.342Z,66.99
2019-05-09T07:22:39.218Z,66.08
2019-05-09T07:25:18.578Z,65.12
2019-05-09T07:27:48.108Z,64.32
2019-05-09T07:30:23.498Z,63.41
2019-05-09T07:33:00.595Z,62.32
2019-05-09T07:35:27.885Z,61.91
2019-05-09T07:37:54.968Z,61.66
2019-05-09T07:40:21.973Z,61.30
2019-05-09T07:42:48.989Z,61.15
2019-05-09T07:45:17.874Z,60.96
2019-05-09T07:47:44.853Z,61.01
2019-05-09T07:50:12.005Z,60.89
2019-05-09T07:52:39.072Z,60.63
2019-05-09T07:55:08.483Z,60.74
2019-05-09T07:57:34.988Z,60.74
2019-05-09T08:00:01.999Z,60.29
2019-05-09T08:02:28.991Z,59.64
2019-05-09T08:04:57.935Z,59.48
2019-05-09T08:07:28.347Z,59.01
2019-05-09T08:09:53.672Z,58.51
2019-05-09T08:12:20.617Z,58.48
2019-05-09T08:15:06.673Z,58.17
2019-05-09T08:17:18.113Z,57.66
2019-05-09T08:19:48.210Z,57.28
2019-05-09T08:22:14.095Z,56.96
2019-05-09T08:24:41.043Z,55.42
2019-05-09T08:27:08.693Z,55.76
2019-05-09T08:29:35.743Z,55.30
2019-05-09T08:32:02.745Z,54.94
2019-05-09T08:34:29.673Z,54.51
2019-05-09T08:36:58.072Z,54.60
2019-05-09T08:39:27.707Z,53.95
2019-05-09T08:41:54.140Z,53.67
2019-05-09T08:44:21.149Z,53.71
2019-05-09T08:46:48.285Z,52.48
2019-05-09T08:49:15.291Z,53.26
2019-05-09T08:51:56.068Z,53.38
2019-05-09T08:54:32.806Z,52.43
2019-05-09T08:56:59.796Z,52.26
2019-05-09T08:59:27.678Z,52.02
2019-05-09T09:02:12.435Z,52.30
2019-05-09T09:04:23.613Z,52.09
2019-05-09T09:06:50.551Z,52.40
2019-05-09T09:09:18.040Z,51.44
2019-05-09T09:11:47.709Z,51.02
2019-05-09T09:14:14.133Z,51.07
2019-05-09T09:16:41.955Z,51.13
2019-05-09T09:19:09.130Z,50.30
2019-05-09T09:21:38.644Z,50.49
2019-05-09T09:24:04.888Z,51.09
2019-05-09T09:26:31.826Z,51.00
2019-05-09T09:28:58.793Z,50.74
2019-05-09T09:31:25.764Z,51.09
2019-05-09T09:33:52.723Z,51.28
2019-05-09T09:36:19.687Z,49.64
2019-05-09T09:38:48.034Z,49.84
2019-05-09T09:41:15.155Z,50.00
2019-05-09T09:43:42.161Z,49.63
2019-05-09T09:46:14.415Z,50.04
2019-05-09T09:48:40.276Z,49.73
2019-05-09T09:51:08.022Z,49.89
2019-05-09T09:53:35.317Z,49.83
2019-05-09T09:56:02.359Z,49.70
2019-05-09T09:58:29.254Z,49.51
2019-05-09T10:01:05.223Z,49.53
2019-05-09T10:03:33.187Z,49.68
2019-05-09T10:06:00.159Z,49.65
2019-05-09T10:08:27.144Z,50.30
2019-05-09T10:10:54.107Z,49.84
2019-05-09T10:13:21.108Z,49.43
2019-05-09T10:16:17.906Z,49.76
2019-05-09T10:18:45.239Z,50.21
2019-05-09T10:21:16.233Z,49.98
2019-05-09T10:23:43.185Z,49.77
2019-05-09T10:26:10.136Z,49.71
2019-05-09T10:28:37.997Z,49.64
2019-05-09T10:31:05.267Z,50.26
2019-05-09T10:33:32.230Z,49.24
2019-05-09T10:36:04.041Z,49.79
2019-05-09T10:38:28.163Z,50.45
2019-05-09T10:40:55.122Z,50.72
2019-05-09T10:43:54.067Z,50.73
2019-05-09T10:46:52.165Z,50.91
2019-05-09T10:49:08.005Z,51.25
2019-05-09T10:51:33.748Z,49.82
2019-05-09T10:54:00.682Z,48.98
2019-05-09T10:56:28.186Z,49.30
2019-05-09T10:58:55.423Z,48.93
2019-05-09T11:01:22.364Z,48.91
2019-05-09T11:03:49.385Z,49.18
2019-05-09T11:06:18.475Z,49.36
2019-05-09T11:08:47.372Z,49.37
2019-05-09T11:11:14.095Z,49.49
2019-05-09T11:13:41.063Z,48.76
2019-05-09T11:16:08.015Z,49.34
2019-05-09T11:18:34.990Z,48.17
2019-05-09T11:21:02.032Z,48.12
2019-05-09T11:23:29.292Z,48.26
2019-05-09T11:25:58.086Z,48.64
2019-05-09T11:28:25.319Z,47.07
2019-05-09T11:30:52.250Z,46.62
2019-05-09T11:33:19.216Z,47.42
2019-05-09T11:35:47.991Z,46.71
2019-05-09T11:38:29.482Z,46.23
2019-05-09T11:40:43.932Z,46.60
2019-05-09T11:43:10.949Z,46.28
2019-05-09T11:45:38.851Z,46.76
2019-05-09T11:48:08.209Z,47.26
2019-05-09T11:50:34.799Z,47.23
2019-05-09T11:53:02.064Z,46.77
2019-05-09T11:55:35.693Z,46.45
2019-05-09T11:57:59.070Z,45.99
2019-05-09T12:00:26.219Z,46.26
2019-05-09T12:02:53.206Z,46.02
2019-05-09T12:05:20.180Z,45.32
2019-05-09T12:07:47.141Z,46.48
2019-05-09T12:10:14.212Z,46.08
2019-05-09T12:12:41.183Z,45.50
2019-05-09T12:15:09.045Z,46.25
2019-05-09T12:17:51.040Z,46.67
2019-05-09T12:20:12.568Z,46.82
2019-05-09T12:22:36.196Z,46.51
2019-05-09T12:25:03.718Z,46.21
2019-05-09T12:27:30.741Z,46.80
2019-05-09T12:29:58.291Z,47.15
2019-05-09T12:32:28.255Z,46.43
2019-05-09T12:34:54.387Z,47.76
2019-05-09T12:37:21.401Z,48.27
2019-05-09T12:39:48.470Z,48.61
2019-05-09T12:42:18.284Z,47.56
2019-05-09T12:44:44.444Z,48.02
2019-05-09T12:47:11.650Z,46.96
2019-05-09T12:49:38.698Z,47.07
2019-05-09T12:52:08.021Z,46.51
2019-05-09T12:54:34.650Z,47.00
2019-05-09T12:57:01.662Z,45.35
2019-05-09T12:59:28.836Z,45.04
2019-05-09T13:01:58.103Z,44.95
2019-05-09T13:04:24.863Z,45.61
2019-05-09T13:06:51.876Z,46.01
2019-05-09T13:09:18.929Z,46.55
2019-05-09T13:11:48.061Z,47.00
2019-05-09T13:14:14.848Z,46.93
2019-05-09T13:17:03.521Z,46.78
2019-05-09T13:19:38.130Z,46.34
2019-05-09T13:22:08.022Z,46.55
2019-05-09T13:24:34.484Z,45.75
2019-05-09T13:27:01.526Z,45.40
2019-05-09T13:29:29.631Z,46.09
2019-05-09T13:31:57.757Z,46.54
2019-05-09T13:34:24.896Z,46.14
2019-05-09T13:36:51.920Z,46.82
2019-05-09T13:39:18.923Z,46.75
2019-05-09T13:41:47.583Z,44.49
2019-05-09T13:44:14.895Z,45.98
2019-05-09T13:46:41.908Z,44.60
2019-05-09T13:49:14.830Z,45.65
2019-05-09T13:51:47.004Z,46.44
2019-05-09T13:54:06.866Z,47.05
2019-05-09T13:56:33.880Z,45.50
2019-05-09T13:59:00.899Z,46.28
2019-05-09T14:01:27.908Z,46.45
2019-05-09T14:03:57.451Z,46.52
2019-05-09T14:06:23.901Z,46.31
2019-05-09T14:08:50.927Z,47.42
2019-05-09T14:11:19.348Z,50.21
2019-05-09T14:13:48.801Z,50.81
2019-05-09T14:16:21.693Z,50.64
2019-05-09T14:18:44.499Z,50.36
2019-05-09T14:21:11.539Z,49.88
2019-05-09T14:23:48.114Z,49.46
2019-05-09T14:26:09.438Z,49.85
2019-05-09T14:28:36.412Z,49.35
2019-05-09T14:31:03.441Z,48.91
2019-05-09T14:33:30.464Z,49.31
2019-05-09T14:35:59.411Z,49.76
2019-05-09T14:38:26.433Z,49.67
2019-05-09T14:40:53.453Z,50.18
2019-05-09T14:43:20.475Z,50.98
2019-05-09T14:45:48.368Z,50.66
2019-05-09T14:48:15.608Z,50.58
2019-05-09T14:50:42.672Z,51.31
2019-05-09T14:53:09.701Z,52.26
2019-05-09T14:55:39.160Z,52.48
2019-05-09T14:58:07.808Z,51.85
2019-05-09T15:00:34.574Z,50.65
2019-05-09T15:03:01.592Z,51.07
2019-05-09T15:05:28.620Z,51.26
2019-05-09T15:07:58.896Z,51.46
2019-05-09T15:10:24.613Z,51.95
2019-05-09T15:12:51.653Z,51.56
2019-05-09T15:15:18.796Z,51.83
2019-05-09T15:17:48.687Z,51.54
2019-05-09T15:20:14.818Z,51.63
2019-05-09T15:22:41.876Z,50.53
2019-05-09T15:25:09.093Z,48.01
2019-05-09T15:27:38.568Z,48.36
2019-05-09T15:30:05.357Z,49.41
2019-05-09T15:32:32.402Z,49.87
2019-05-09T15:34:59.423Z,49.25
2019-05-09T15:37:28.580Z,50.11
2019-05-09T15:39:55.381Z,50.66
2019-05-09T15:42:22.399Z,51.06
2019-05-09T15:44:49.460Z,51.70
2019-05-09T15:47:21.045Z,52.25
2019-05-09T15:49:49.426Z,52.21
2019-05-09T15:52:18.095Z,52.78
2019-05-09T15:54:45.240Z,53.51
2019-05-09T15:57:12.339Z,54.04
2019-05-09T15:59:39.360Z,54.25
2019-05-09T16:02:08.945Z,53.69
2019-05-09T16:04:35.501Z,53.36
2019-05-09T16:07:02.530Z,53.76
2019-05-09T16:09:29.571Z,54.04
2019-05-09T16:11:56.579Z,54.08
2019-05-09T16:14:23.579Z,53.83
2019-05-09T16:16:50.620Z,54.04
2019-05-09T16:19:17.620Z,52.99
2019-05-09T16:21:44.740Z,52.11
2019-05-09T16:24:11.739Z,52.63
2019-05-09T16:26:38.754Z,52.43
2019-05-09T16:29:08.300Z,53.05
2019-05-09T16:31:34.734Z,52.98
2019-05-09T16:34:01.733Z,53.48
2019-05-09T16:36:28.791Z,53.87
2019-05-09T16:38:58.375Z,54.68
2019-05-09T16:41:27.872Z,54.89
2019-05-09T16:43:54.546Z,54.54
2019-05-09T16:46:21.601Z,55.12
2019-05-09T16:48:48.634Z,54.86
2019-05-09T16:51:18.025Z,55.83
2019-05-09T16:53:44.546Z,56.11
2019-05-09T16:56:11.600Z,55.85
2019-05-09T16:58:38.611Z,55.93
2019-05-09T17:01:08.171Z,55.81
2019-05-09T17:03:34.534Z,55.71
2019-05-09T17:06:01.535Z,55.80
2019-05-09T17:08:28.564Z,55.55
2019-05-09T17:10:55.569Z,55.87
2019-05-09T17:13:22.571Z,56.35
2019-05-09T17:15:49.573Z,56.62
2019-05-09T17:18:18.864Z,56.67
2019-05-09T17:21:17.757Z,56.48
2019-05-09T17:23:32.921Z,56.33
2019-05-09T17:25:59.930Z,56.44
2019-05-09T17:28:28.466Z,56.74
2019-05-09T17:30:57.915Z,56.93
2019-05-09T17:33:24.633Z,56.85
2019-05-09T17:35:51.639Z,56.70
2019-05-09T17:38:18.675Z,56.08
2019-05-09T17:40:48.235Z,56.80
2019-05-09T17:43:14.587Z,56.93
2019-05-09T17:45:42.321Z,57.24
2019-05-09T17:48:09.435Z,57.40
2019-05-09T17:50:38.372Z,57.75
2019-05-09T17:53:05.384Z,58.06
2019-05-09T17:55:32.394Z,57.76
2019-05-09T17:57:59.433Z,57.90
2019-05-09T18:00:27.959Z,57.85
2019-05-09T18:02:55.168Z,57.62
2019-05-09T18:05:22.272Z,57.87
2019-05-09T18:07:49.333Z,57.80
2019-05-09T18:10:18.888Z,58.02
2019-05-09T18:12:47.924Z,58.31
2019-05-09T18:15:15.466Z,58.59
2019-05-09T18:17:42.471Z,58.92
2019-05-09T18:20:09.575Z,59.30
2019-05-09T18:22:36.606Z,59.19
2019-05-09T18:25:04.292Z,59.37
2019-05-09T18:27:31.313Z,59.21
2019-05-09T18:29:58.426Z,59.15
2019-05-09T18:32:40.568Z,59.14
2019-05-09T18:35:27.835Z,59.63
2019-05-09T18:37:55.265Z,59.60
2019-05-09T18:40:22.264Z,60.45
2019-05-09T18:42:49.386Z,60.85
2019-05-09T18:45:18.690Z,60.78
2019-05-09T18:47:48.003Z,60.34
2019-05-09T18:50:15.674Z,60.25
2019-05-09T18:52:42.691Z,60.00
2019-05-09T18:55:10.815Z,60.00
2019-05-09T18:57:37.865Z,59.95
2019-05-09T19:00:05.746Z,60.05
2019-05-09T19:02:32.957Z,60.14
2019-05-09T19:04:59.988Z,60.02
2019-05-09T19:07:27.048Z,59.94
2019-05-09T19:09:54.060Z,60.05
2019-05-09T19:12:21.079Z,59.94
2019-05-09T19:14:48.220Z,60.01
2019-05-09T19:17:41.052Z,60.25
2019-05-09T19:20:16.871Z,60.30
2019-05-09T19:22:43.868Z,60.29
2019-05-09T19:25:10.888Z,60.27
2019-05-09T19:27:37.934Z,60.64
2019-05-09T19:30:05.093Z,60.79
2019-05-09T19:32:32.134Z,61.16
2019-05-09T19:34:59.188Z,61.27
2019-05-09T19:37:26.214Z,61.26
2019-05-09T19:39:53.259Z,61.67
2019-05-09T19:42:20.320Z,62.41
2019-05-09T19:44:47.348Z,62.59
2019-05-09T19:47:14.391Z,62.44
2019-05-09T19:49:41.435Z,62.59
2019-05-09T19:52:08.490Z,62.48
2019-05-09T19:54:35.509Z,62.36
2019-05-09T19:57:02.528Z,62.25
2019-05-09T19:59:29.566Z,62.22
2019-05-09T20:01:56.602Z,62.28
2019-05-09T20:04:23.619Z,62.25
2019-05-09T20:06:50.681Z,62.29
2019-05-09T20:09:26.630Z,62.22
2019-05-09T20:12:12.248Z,62.09
2019-05-09T20:14:42.062Z,62.07
2019-05-09T20:17:09.117Z,61.96
2019-05-09T20:19:36.125Z,61.84
2019-05-09T20:22:03.141Z,61.68
2019-05-09T20:24:30.184Z,61.60
2019-05-09T20:26:57.190Z,61.71
2019-05-09T20:29:24.247Z,61.64
2019-05-09T20:31:51.278Z,61.78
2019-05-09T20:34:18.247Z,61.97
2019-05-09T20:36:45.374Z,62.20
2019-05-09T20:39:12.418Z,62.41
2019-05-09T20:41:39.438Z,62.57
2019-05-09T20:44:06.465Z,62.63
2019-05-09T20:46:33.509Z,62.80
2019-05-09T20:49:00.558Z,62.96
2019-05-09T20:51:27.580Z,62.98
2019-05-09T20:53:54.580Z,63.16
2019-05-09T20:56:21.620Z,63.16
2019-05-09T20:58:48.640Z,63.05
2019-05-09T21:01:15.635Z,63.11
2019-05-09T21:03:58.558Z,63.16
2019-05-09T21:06:11.581Z,63.15
2019-05-09T21:08:38.598Z,63.25
2019-05-09T21:11:05.634Z,63.83
2019-05-09T21:13:47.391Z,64.25
2019-05-09T21:16:01.799Z,64.69
2019-05-09T21:18:28.989Z,65.11
2019-05-09T21:20:55.951Z,65.06
2019-05-09T21:23:25.011Z,65.21
2019-05-09T21:25:51.931Z,65.39
2019-05-09T21:28:18.950Z,65.51
2019-05-09T21:30:45.993Z,65.45
2019-05-09T21:33:13.059Z,65.41
2019-05-09T21:35:40.067Z,65.41
2019-05-09T21:38:07.129Z,65.33
2019-05-09T21:40:34.143Z,65.30
2019-05-09T21:43:01.182Z,65.30
2019-05-09T21:45:28.223Z,65.28
2019-05-09T21:47:55.286Z,65.24
2019-05-09T21:50:22.314Z,65.26
2019-05-09T21:52:49.369Z,65.19
2019-05-09T21:55:16.498Z,65.07
2019-05-09T21:57:43.504Z,65.03
2019-05-09T22:00:16.460Z,64.91
2019-05-09T22:02:43.705Z,64.82
2019-05-09T22:05:10.822Z,64.74
2019-05-09T22:07:37.849Z,64.67
2019-05-09T22:10:05.500Z,64.65
2019-05-09T22:12:32.530Z,64.61
2019-05-09T22:15:03.509Z,64.52
2019-05-09T22:17:37.059Z,64.44
2019-05-09T22:20:04.952Z,64.45
2019-05-09T22:22:31.962Z,64.38
2019-05-09T22:24:58.970Z,64.22
2019-05-09T22:27:26.100Z,64.10
2019-05-09T22:29:53.133Z,64.08
2019-05-09T22:32:22.223Z,64.16
2019-05-09T22:34:49.127Z,64.25
2019-05-09T22:37:16.227Z,64.32
2019-05-09T22:39:43.273Z,64.41
2019-05-09T22:42:10.432Z,64.50
2019-05-09T22:44:37.445Z,64.58
2019-05-09T22:47:04.541Z,64.71
2019-05-09T22:49:31.606Z,64.86
2019-05-09T22:51:58.621Z,65.01
2019-05-09T22:54:25.640Z,65.08
2019-05-09T22:56:52.707Z,65.17
2019-05-09T22:59:19.723Z,65.24
2019-05-09T23:01:46.735Z,65.30
2019-05-09T23:04:13.751Z,65.36
2019-05-09T23:06:40.756Z,65.45
2019-05-09T23:09:07.785Z,65.62
2019-05-09T23:11:34.823Z,65.78
2019-05-09T23:14:01.846Z,65.85
2019-05-09T23:16:31.895Z,65.97
2019-05-09T23:18:58.973Z,65.99
2019-05-09T23:21:27.457Z,66.04
2019-05-09T23:24:05.925Z,66.08
2019-05-09T23:26:32.927Z,66.13
2019-05-09T23:28:59.919Z,66.24
2019-05-09T23:31:44.972Z,66.34
2019-05-09T23:34:12.016Z,66.40
2019-05-09T23:36:39.025Z,66.64
2019-05-09T23:39:19.673Z,66.78
2019-05-09T23:41:46.752Z,66.90
2019-05-09T23:44:13.822Z,67.25
2019-05-09T23:46:40.869Z,67.44
2019-05-09T23:49:07.917Z,67.72
2019-05-09T23:52:03.787Z,67.84
2019-05-09T23:54:49.037Z,67.93
2019-05-09T23:57:34.459Z,68.07
